createdAt,value
2019-05-02T00:01:39.594Z,5.40
2019-05-02T00:04:12.400Z,5.45
2019-05-02T00:06:42.978Z,6.30
2019-05-02T00:09:11.791Z,6.62
2019-05-02T00:11:40.995Z,7.37
2019-05-02T00:14:10.393Z,9.00
2019-05-02T00:16:39.690Z,9.50
2019-05-02T00:19:14.101Z,10.95
2019-05-02T00:21:43.118Z,11.50
2019-05-02T00:24:13.734Z,12.65
2019-05-02T00:26:42.827Z,12.28
2019-05-02T00:29:12.029Z,13.68
2019-05-02T00:31:41.873Z,13.78
2019-05-02T00:34:12.779Z,13.98
2019-05-02T00:36:42.895Z,15.13
2019-05-02T00:39:16.115Z,15.20
2019-05-02T00:41:45.181Z,16.10
2019-05-02T00:44:14.272Z,15.43
2019-05-02T00:46:43.368Z,14.98
2019-05-02T00:49:12.463Z,15.15
2019-05-02T00:51:41.560Z,16.32
2019-05-02T00:54:10.574Z,16.17
2019-05-02T00:56:44.056Z,16.12
2019-05-02T00:59:11.407Z,14.98
2019-05-02T01:01:48.918Z,15.58
2019-05-02T01:04:29.560Z,16.67
2019-05-02T01:06:58.862Z,16.73
2019-05-02T01:09:28.056Z,16.42
2019-05-02T01:12:03.184Z,17.32
2019-05-02T01:14:31.731Z,16.73
2019-05-02T01:17:00.795Z,17.37
2019-05-02T01:19:33.755Z,18.23
2019-05-02T01:22:02.950Z,17.25
2019-05-02T01:24:34.077Z,16.97
2019-05-02T01:27:06.314Z,16.35
2019-05-02T01:29:45.700Z,15.72
2019-05-02T01:32:16.400Z,16.70
2019-05-02T01:34:54.502Z,16.80
2019-05-02T01:37:25.273Z,16.77
2019-05-02T01:39:54.381Z,16.93
2019-05-02T01:42:24.803Z,16.93
2019-05-02T01:44:53.998Z,17.48
2019-05-02T01:47:23.013Z,17.55
2019-05-02T01:49:57.055Z,17.27
2019-05-02T01:52:25.879Z,17.17
2019-05-02T01:54:55.179Z,17.27
2019-05-02T01:57:24.273Z,17.98
2019-05-02T01:59:53.370Z,18.98
2019-05-02T02:02:22.387Z,17.90
2019-05-02T02:04:56.789Z,18.07
2019-05-02T02:07:23.113Z,17.65
2019-05-02T02:09:52.410Z,17.80
2019-05-02T02:12:27.219Z,18.25
2019-05-02T02:14:56.341Z,18.85
2019-05-02T02:17:25.560Z,19.30
2019-05-02T02:19:56.269Z,19.20
2019-05-02T02:22:26.998Z,19.62
2019-05-02T02:25:09.621Z,20.17
2019-05-02T02:27:39.319Z,19.73
2019-05-02T02:30:17.756Z,20.17
2019-05-02T02:32:41.752Z,20.97
2019-05-02T02:35:12.678Z,21.33
2019-05-02T02:37:51.810Z,19.90
2019-05-02T02:40:12.210Z,20.12
2019-05-02T02:42:42.297Z,20.62
2019-05-02T02:45:18.965Z,20.85
2019-05-02T02:47:52.808Z,22.05
2019-05-02T02:50:17.264Z,21.12
2019-05-02T02:52:47.168Z,21.15
2019-05-02T02:55:21.821Z,21.33
2019-05-02T02:57:48.051Z,20.30
2019-05-02T03:00:17.315Z,20.80
2019-05-02T03:02:50.046Z,20.70
2019-05-02T03:05:26.297Z,20.10
2019-05-02T03:07:50.870Z,20.88
2019-05-02T03:10:20.011Z,20.97
2019-05-02T03:13:06.966Z,20.30
2019-05-02T03:15:38.709Z,20.85
2019-05-02T03:18:07.918Z,20.10
2019-05-02T03:20:40.570Z,20.15
2019-05-02T03:23:15.156Z,20.30
2019-05-02T03:25:50.337Z,19.80
2019-05-02T03:28:18.039Z,18.77
2019-05-02T03:30:43.116Z,18.87
2019-05-02T03:33:12.628Z,18.50
2019-05-02T03:35:48.434Z,16.30
2019-05-02T03:38:12.976Z,16.60
2019-05-02T03:40:45.840Z,15.28
2019-05-02T03:43:18.925Z,14.80
2019-05-02T03:45:45.777Z,13.60
2019-05-02T03:48:18.498Z,12.70
2019-05-02T03:50:46.728Z,13.32
2019-05-02T03:53:17.793Z,12.40
2019-05-02T03:55:46.660Z,12.78
2019-05-02T03:58:17.022Z,13.30
2019-05-02T04:00:46.689Z,14.28
2019-05-02T04:03:16.087Z,14.60
2019-05-02T04:05:45.292Z,13.93
2019-05-02T04:08:20.783Z,13.68
2019-05-02T04:10:52.667Z,14.43
2019-05-02T04:13:19.638Z,14.90
2019-05-02T04:15:48.924Z,14.50
2019-05-02T04:18:18.073Z,15.60
2019-05-02T04:20:51.959Z,20.50
2019-05-02T04:23:27.645Z,18.87
2019-05-02T04:25:53.515Z,15.08
2019-05-02T04:28:23.023Z,21.05
2019-05-02T04:30:53.908Z,18.32
2019-05-02T04:33:28.735Z,17.17
2019-05-02T04:35:53.572Z,26.10
2019-05-02T04:38:31.765Z,20.50
2019-05-02T04:40:53.397Z,138.10
2019-05-02T04:43:22.494Z,35.75
2019-05-02T04:45:56.078Z,86.30
2019-05-02T04:48:22.319Z,51.42
2019-05-02T04:50:51.743Z,25.02
2019-05-02T04:53:25.964Z,18.32
2019-05-02T04:56:01.606Z,19.90
2019-05-02T04:58:27.663Z,23.38
2019-05-02T05:00:58.061Z,19.73
2019-05-02T05:03:28.516Z,19.67
2019-05-02T05:06:06.817Z,16.82
2019-05-02T05:08:32.547Z,15.98
2019-05-02T05:11:01.787Z,15.93
2019-05-02T05:13:31.021Z,16.65
2019-05-02T05:16:02.989Z,17.50
2019-05-02T05:18:37.621Z,24.20
2019-05-02T05:21:10.377Z,17.60
2019-05-02T05:23:41.355Z,17.12
2019-05-02T05:26:11.407Z,17.20
2019-05-02T05:28:44.536Z,18.07
2019-05-02T05:31:18.436Z,17.32
2019-05-02T05:33:47.872Z,17.85
2019-05-02T05:36:19.778Z,16.97
2019-05-02T05:38:47.903Z,19.27
2019-05-02T05:41:21.358Z,15.48
2019-05-02T05:43:50.112Z,16.45
2019-05-02T05:46:18.400Z,16.17
2019-05-02T05:48:47.776Z,15.32
2019-05-02T05:51:20.706Z,17.70
2019-05-02T05:53:59.471Z,17.95
2019-05-02T05:56:27.978Z,19.85
2019-05-02T05:58:59.153Z,21.25
2019-05-02T06:01:34.330Z,15.28
2019-05-02T06:03:58.447Z,15.30
2019-05-02T06:06:27.597Z,16.70
2019-05-02T06:08:56.942Z,14.38
2019-05-02T06:11:26.036Z,14.33
2019-05-02T06:13:56.055Z,13.58
2019-05-02T06:16:25.150Z,13.43
2019-05-02T06:18:58.753Z,13.85
2019-05-02T06:21:27.842Z,13.55
2019-05-02T06:23:56.938Z,15.15
2019-05-02T06:26:27.060Z,14.78
2019-05-02T06:28:59.945Z,15.58
2019-05-02T06:31:30.979Z,14.68
2019-05-02T06:34:02.102Z,12.63
2019-05-02T06:36:32.105Z,12.98
2019-05-02T06:39:01.438Z,12.73
2019-05-02T06:41:41.676Z,12.50
2019-05-02T06:44:18.544Z,11.33
2019-05-02T06:46:47.257Z,12.13
2019-05-02T06:49:16.570Z,11.78
2019-05-02T06:51:50.994Z,12.37
2019-05-02T06:54:18.068Z,12.15
2019-05-02T06:56:49.211Z,12.03
2019-05-02T06:59:22.003Z,12.78
2019-05-02T07:01:57.260Z,12.90
2019-05-02T07:04:24.854Z,13.38
2019-05-02T07:06:58.752Z,47.33
2019-05-02T07:09:23.152Z,16.10
2019-05-02T07:11:57.396Z,23.40
2019-05-02T07:14:24.136Z,23.05
2019-05-02T07:17:07.643Z,18.87
2019-05-02T07:19:38.796Z,17.95
2019-05-02T07:22:08.275Z,15.88
2019-05-02T07:24:37.369Z,16.60
2019-05-02T07:27:07.793Z,17.25
2019-05-02T07:29:36.992Z,18.20
2019-05-02T07:32:06.719Z,19.20
2019-05-02T07:34:35.915Z,21.52
2019-05-02T07:37:08.443Z,22.20
2019-05-02T07:39:40.856Z,21.87
2019-05-02T07:42:09.025Z,22.02
2019-05-02T07:44:38.215Z,23.05
2019-05-02T07:47:07.309Z,25.50
2019-05-02T07:49:37.432Z,27.75
2019-05-02T07:52:06.548Z,27.35
2019-05-02T07:54:35.621Z,27.82
2019-05-02T07:57:06.964Z,29.52
2019-05-02T07:59:36.059Z,30.20
2019-05-02T08:02:08.311Z,31.17
2019-05-02T08:04:43.455Z,32.60
2019-05-02T08:07:11.640Z,31.07
2019-05-02T08:09:44.084Z,31.27
2019-05-02T08:12:12.288Z,31.12
2019-05-02T08:14:41.381Z,28.83
2019-05-02T08:17:16.155Z,28.57
2019-05-02T08:19:41.821Z,28.05
2019-05-02T08:22:13.509Z,27.75
2019-05-02T08:24:42.468Z,27.05
2019-05-02T08:27:23.220Z,26.07
2019-05-02T08:30:00.018Z,21.62
2019-05-02T08:32:30.131Z,20.02
2019-05-02T08:34:59.263Z,19.55
2019-05-02T08:37:28.437Z,18.95
2019-05-02T08:39:58.644Z,16.77
2019-05-02T08:42:32.468Z,15.15
2019-05-02T08:45:02.864Z,14.68
2019-05-02T08:47:31.973Z,14.18
2019-05-02T08:50:01.167Z,14.43
2019-05-02T08:52:30.269Z,15.38
2019-05-02T08:54:59.358Z,12.23
2019-05-02T08:57:30.098Z,11.50
2019-05-02T09:00:00.238Z,11.38
2019-05-02T09:02:40.801Z,10.32
2019-05-02T09:05:04.603Z,9.95
2019-05-02T09:07:31.556Z,9.18
2019-05-02T09:10:05.914Z,7.50
2019-05-02T09:12:36.836Z,6.95
2019-05-02T09:15:11.811Z,7.03
2019-05-02T09:17:46.518Z,6.85
2019-05-02T09:20:18.689Z,5.95
2019-05-02T09:22:46.636Z,5.40
2019-05-02T09:25:15.252Z,4.67
2019-05-02T09:27:44.329Z,4.67
2019-05-02T09:30:17.057Z,4.95
2019-05-02T09:32:45.989Z,5.17
2019-05-02T09:35:15.285Z,4.60
2019-05-02T09:37:44.485Z,3.92
2019-05-02T09:40:16.783Z,4.83
2019-05-02T09:42:47.484Z,4.28
2019-05-02T09:45:27.785Z,5.00
2019-05-02T09:48:03.974Z,4.22
2019-05-02T09:50:31.358Z,4.28
2019-05-02T09:53:01.966Z,4.62
2019-05-02T09:55:31.779Z,5.67
2019-05-02T09:58:05.299Z,8.03
2019-05-02T10:00:52.558Z,8.33
2019-05-02T10:03:22.629Z,8.90
2019-05-02T10:05:52.334Z,8.45
2019-05-02T10:08:23.669Z,14.75
2019-05-02T10:10:53.244Z,8.63
2019-05-02T10:13:27.843Z,8.28
2019-05-02T10:15:57.120Z,8.28
2019-05-02T10:18:30.222Z,8.90
2019-05-02T10:20:56.868Z,9.20
2019-05-02T10:23:27.170Z,9.15
2019-05-02T10:25:56.265Z,9.38
2019-05-02T10:28:25.361Z,9.28
2019-05-02T10:30:56.615Z,8.88
2019-05-02T10:33:27.934Z,8.75
2019-05-02T10:36:02.734Z,9.55
2019-05-02T10:38:32.544Z,9.78
2019-05-02T10:41:04.572Z,10.45
2019-05-02T10:43:33.010Z,8.55
2019-05-02T10:46:09.505Z,8.05
2019-05-02T10:48:47.665Z,8.78
2019-05-02T10:51:35.447Z,8.63
2019-05-02T10:54:12.132Z,7.72
2019-05-02T10:56:42.349Z,9.78
2019-05-02T10:59:15.638Z,8.15
2019-05-02T11:01:57.658Z,7.25
2019-05-02T11:04:29.266Z,6.40
2019-05-02T11:06:58.997Z,5.47
2019-05-02T11:09:28.291Z,6.40
2019-05-02T11:11:57.667Z,8.05
2019-05-02T11:14:31.819Z,6.90
2019-05-02T11:17:17.576Z,4.92
2019-05-02T11:19:47.300Z,4.47
2019-05-02T11:22:16.507Z,3.90
2019-05-02T11:24:45.592Z,4.20
2019-05-02T11:27:14.619Z,4.60
2019-05-02T11:29:43.678Z,3.85
2019-05-02T11:32:16.255Z,3.95
2019-05-02T11:34:47.807Z,3.52
2019-05-02T11:37:22.510Z,3.40
2019-05-02T11:40:00.365Z,3.15
2019-05-02T11:42:27.256Z,3.05
2019-05-02T11:44:55.678Z,3.25
2019-05-02T11:47:26.591Z,3.55
2019-05-02T11:49:55.959Z,3.17
2019-05-02T11:52:27.485Z,2.80
2019-05-02T11:54:57.868Z,3.72
2019-05-02T11:57:28.643Z,2.87
2019-05-02T11:59:59.494Z,2.65
2019-05-02T12:02:38.877Z,3.30
2019-05-02T12:05:10.224Z,2.40
2019-05-02T12:07:41.777Z,2.92
2019-05-02T12:10:12.565Z,3.37
2019-05-02T12:12:42.996Z,2.55
2019-05-02T12:15:12.765Z,2.33
2019-05-02T12:17:42.032Z,2.77
2019-05-02T12:20:11.938Z,2.30
2019-05-02T12:22:43.328Z,3.00
2019-05-02T12:25:12.742Z,3.12
2019-05-02T12:27:42.512Z,3.27
2019-05-02T12:30:12.206Z,3.30
2019-05-02T12:32:42.669Z,3.30
2019-05-02T12:35:14.838Z,3.10
2019-05-02T12:37:47.059Z,2.90
2019-05-02T12:40:15.116Z,3.20
2019-05-02T12:42:44.267Z,3.50
2019-05-02T12:45:13.763Z,5.10
2019-05-02T12:47:43.882Z,4.17
2019-05-02T12:50:13.325Z,4.87
2019-05-02T12:52:42.868Z,4.83
2019-05-02T12:55:12.820Z,8.70
2019-05-02T12:57:42.841Z,5.67
2019-05-02T13:00:12.973Z,4.42
2019-05-02T13:02:58.732Z,3.42
2019-05-02T13:05:27.922Z,2.67
2019-05-02T13:07:59.168Z,2.60
2019-05-02T13:10:43.522Z,2.87
2019-05-02T13:13:16.219Z,3.17
2019-05-02T13:15:46.461Z,2.40
2019-05-02T13:18:18.733Z,2.42
2019-05-02T13:20:47.688Z,2.90
2019-05-02T13:23:32.014Z,2.98
2019-05-02T13:26:10.576Z,2.58
2019-05-02T13:28:36.058Z,3.30
2019-05-02T13:31:07.085Z,3.27
2019-05-02T13:33:42.687Z,3.35
2019-05-02T13:36:32.482Z,4.03
2019-05-02T13:39:02.723Z,3.72
2019-05-02T13:41:32.197Z,4.10
2019-05-02T13:44:02.165Z,5.47
2019-05-02T13:46:32.213Z,4.62
2019-05-02T13:49:02.130Z,4.37
2019-05-02T13:51:32.186Z,4.97
2019-05-02T13:54:02.396Z,4.97
2019-05-02T13:56:36.260Z,5.17
2019-05-02T13:59:06.333Z,5.00
2019-05-02T14:01:35.660Z,5.00
2019-05-02T14:04:10.111Z,4.92
2019-05-02T14:06:38.372Z,5.47
2019-05-02T14:09:28.134Z,6.20
2019-05-02T14:12:12.180Z,6.05
2019-05-02T14:14:42.355Z,5.80
2019-05-02T14:17:11.802Z,5.15
2019-05-02T14:19:45.057Z,4.87
2019-05-02T14:22:14.191Z,5.33
2019-05-02T14:24:43.285Z,5.90
2019-05-02T14:27:17.356Z,6.10
2019-05-02T14:29:46.454Z,4.90
2019-05-02T14:32:23.194Z,4.65
2019-05-02T14:34:53.797Z,5.35
2019-05-02T14:37:22.892Z,3.67
2019-05-02T14:39:53.525Z,3.42
2019-05-02T14:42:27.629Z,3.58
2019-05-02T14:45:08.959Z,3.58
2019-05-02T14:47:27.800Z,3.17
2019-05-02T14:50:01.080Z,3.17
2019-05-02T14:52:27.494Z,2.67
2019-05-02T14:54:56.589Z,3.87
2019-05-02T14:57:27.233Z,3.72
2019-05-02T14:59:59.444Z,4.78
2019-05-02T15:02:49.164Z,4.03
2019-05-02T15:05:29.466Z,5.08
2019-05-02T15:08:01.191Z,4.53
2019-05-02T15:10:36.218Z,3.08
2019-05-02T15:13:03.949Z,3.25
2019-05-02T15:15:40.478Z,3.50
2019-05-02T15:18:08.011Z,3.17
2019-05-02T15:20:38.717Z,4.60
2019-05-02T15:23:07.239Z,4.62
2019-05-02T15:25:37.543Z,3.00
2019-05-02T15:28:08.171Z,2.80
2019-05-02T15:30:47.790Z,3.08
2019-05-02T15:33:12.595Z,2.58
2019-05-02T15:35:43.584Z,2.62
2019-05-02T15:38:27.727Z,2.47
2019-05-02T15:40:53.722Z,2.37
2019-05-02T15:43:25.495Z,2.30
2019-05-02T15:45:54.566Z,2.37
2019-05-02T15:48:27.899Z,2.60
2019-05-02T15:51:00.123Z,2.30
2019-05-02T15:53:33.963Z,2.20
2019-05-02T15:56:18.705Z,2.17
2019-05-02T15:58:42.574Z,2.10
2019-05-02T16:01:41.552Z,2.67
2019-05-02T16:04:17.174Z,2.70
2019-05-02T16:06:49.421Z,3.05
2019-05-02T16:09:24.264Z,2.30
2019-05-02T16:11:57.093Z,2.22
2019-05-02T16:14:34.192Z,1.60
2019-05-02T16:17:17.722Z,1.75
2019-05-02T16:19:49.464Z,1.70
2019-05-02T16:22:23.578Z,1.80
2019-05-02T16:24:59.002Z,2.02
2019-05-02T16:27:34.416Z,2.20
2019-05-02T16:30:07.411Z,1.90
2019-05-02T16:32:38.742Z,1.30
2019-05-02T16:35:29.934Z,1.27
2019-05-02T16:38:07.095Z,1.30
2019-05-02T16:40:36.485Z,0.80
2019-05-02T16:43:14.148Z,1.25
2019-05-02T16:45:45.508Z,1.10
2019-05-02T16:48:19.770Z,1.10
2019-05-02T16:51:08.212Z,1.30
2019-05-02T16:53:34.837Z,1.00
2019-05-02T16:56:07.061Z,0.90
2019-05-02T16:58:38.061Z,1.37
2019-05-02T17:01:05.709Z,1.42
2019-05-02T17:03:39.512Z,1.67
2019-05-02T17:06:08.436Z,7.42
2019-05-02T17:08:44.532Z,13.30
2019-05-02T17:11:27.813Z,25.43
2019-05-02T17:13:59.392Z,7.05
2019-05-02T17:16:31.817Z,22.22
2019-05-02T17:21:35.026Z,6.08
2019-05-02T17:24:02.601Z,6.53
2019-05-02T17:26:34.319Z,3.98
2019-05-02T17:29:03.398Z,2.33
2019-05-02T17:31:33.268Z,2.72
2019-05-02T17:34:06.754Z,4.55
2019-05-02T17:36:35.860Z,7.25
2019-05-02T17:39:12.463Z,8.30
2019-05-02T17:41:45.620Z,4.17
2019-05-02T17:44:18.444Z,11.63
2019-05-02T17:46:58.256Z,7.10
2019-05-02T17:49:23.690Z,7.30
2019-05-02T17:52:18.998Z,4.22
2019-05-02T17:54:45.443Z,4.80
2019-05-02T17:57:15.933Z,2.33
2019-05-02T17:59:48.785Z,6.78
2019-05-02T18:02:21.964Z,3.87
2019-05-02T18:04:55.829Z,5.17
2019-05-02T18:07:31.673Z,2.10
2019-05-02T18:09:57.977Z,3.98
2019-05-02T18:12:27.163Z,6.92
2019-05-02T18:15:03.283Z,1.70
2019-05-02T18:17:32.524Z,2.40
2019-05-02T18:20:05.846Z,1.37
2019-05-02T18:22:39.955Z,1.10
2019-05-02T18:25:11.599Z,1.10
2019-05-02T18:27:42.118Z,3.65
2019-05-02T18:30:27.125Z,1.65
2019-05-02T18:32:57.867Z,1.60
2019-05-02T18:35:27.209Z,2.15
2019-05-02T18:38:00.129Z,6.28
2019-05-02T18:40:31.492Z,1.40
2019-05-02T18:43:03.560Z,1.50
2019-05-02T18:45:31.854Z,3.20
2019-05-02T18:48:05.163Z,2.40
2019-05-02T18:50:41.784Z,1.20
2019-05-02T18:53:13.740Z,1.90
2019-05-02T18:55:43.211Z,1.42
2019-05-02T18:58:12.834Z,1.40
2019-05-02T19:00:42.460Z,1.60
2019-05-02T19:03:13.240Z,1.75
2019-05-02T19:05:42.566Z,1.40
2019-05-02T19:08:12.029Z,1.40
2019-05-02T19:10:44.709Z,1.77
2019-05-02T19:13:15.577Z,1.20
2019-05-02T19:15:48.794Z,2.85
2019-05-02T19:18:18.117Z,2.40
2019-05-02T19:20:57.572Z,3.27
2019-05-02T19:23:25.672Z,1.80
2019-05-02T19:25:55.159Z,1.50
2019-05-02T19:28:39.189Z,1.60
2019-05-02T19:31:09.077Z,6.42
2019-05-02T19:33:42.541Z,2.80
2019-05-02T19:36:11.355Z,2.05
2019-05-02T19:38:42.704Z,2.50
2019-05-02T19:41:12.762Z,1.77
2019-05-02T19:43:49.553Z,2.33
2019-05-02T19:46:13.117Z,4.17
2019-05-02T19:48:43.330Z,21.90
2019-05-02T19:51:18.722Z,8.73
2019-05-02T19:53:46.730Z,8.13
2019-05-02T19:56:16.475Z,2.30
2019-05-02T19:58:48.106Z,2.33
2019-05-02T20:01:17.452Z,2.70
2019-05-02T20:03:47.383Z,2.40
2019-05-02T20:06:16.720Z,6.53
2019-05-02T20:08:52.463Z,2.10
2019-05-02T20:11:21.929Z,2.12
2019-05-02T20:13:51.217Z,1.82
2019-05-02T20:16:25.899Z,1.80
2019-05-02T20:18:59.462Z,1.60
2019-05-02T20:21:33.450Z,2.45
2019-05-02T20:24:04.122Z,1.75
2019-05-02T20:26:34.200Z,8.83
2019-05-02T20:29:03.539Z,5.17
2019-05-02T20:31:32.532Z,4.47
2019-05-02T20:34:02.548Z,5.85
2019-05-02T20:36:32.223Z,2.72
2019-05-02T20:39:02.332Z,2.80
2019-05-02T20:41:32.094Z,2.52
2019-05-02T20:44:03.887Z,2.10
2019-05-02T20:46:33.005Z,1.70
2019-05-02T20:49:02.544Z,1.80
2019-05-02T20:51:32.029Z,1.70
2019-05-02T20:54:02.124Z,1.72
2019-05-02T20:56:32.676Z,1.75
2019-05-02T20:59:05.287Z,1.72
2019-05-02T21:01:38.363Z,1.70
2019-05-02T21:04:12.237Z,1.52
2019-05-02T21:06:44.096Z,1.52
2019-05-02T21:09:17.718Z,1.50
2019-05-02T21:11:49.138Z,1.52
2019-05-02T21:14:18.146Z,1.85
2019-05-02T21:16:49.784Z,1.50
2019-05-02T21:19:21.629Z,1.70
2019-05-02T21:21:50.133Z,1.25
2019-05-02T21:24:23.899Z,1.50
2019-05-02T21:26:52.736Z,2.62
2019-05-02T21:29:25.950Z,1.65
2019-05-02T21:31:54.686Z,1.90
2019-05-02T21:34:23.378Z,1.77
2019-05-02T21:36:52.061Z,1.87
2019-05-02T21:39:22.510Z,2.02
2019-05-02T21:41:51.709Z,1.60
2019-05-02T21:44:22.269Z,1.75
2019-05-02T21:46:51.969Z,1.92
2019-05-02T21:49:40.063Z,1.82
2019-05-02T21:52:27.330Z,2.00
2019-05-02T21:55:12.748Z,2.50
2019-05-02T21:57:41.636Z,2.37
2019-05-02T22:00:12.189Z,2.98
2019-05-02T22:02:40.982Z,2.00
2019-05-02T22:05:12.596Z,2.30
2019-05-02T22:07:42.464Z,2.00
2019-05-02T22:10:12.120Z,2.10
2019-05-02T22:13:06.219Z,2.00
2019-05-02T22:15:38.886Z,2.02
2019-05-02T22:18:07.843Z,1.83
2019-05-02T22:20:42.680Z,2.30
2019-05-02T22:23:11.814Z,2.33
2019-05-02T22:25:41.984Z,1.80
2019-05-02T22:28:12.581Z,1.95
2019-05-02T22:30:42.880Z,1.95
2019-05-02T22:33:15.334Z,1.72
2019-05-02T22:35:44.064Z,2.02
2019-05-02T22:38:17.254Z,2.12
2019-05-02T22:40:47.463Z,2.12
2019-05-02T22:43:22.074Z,2.30
2019-05-02T22:45:51.373Z,1.85
2019-05-02T22:48:22.747Z,2.12
2019-05-02T22:50:54.784Z,1.70
2019-05-02T22:53:24.493Z,2.17
2019-05-02T22:55:53.289Z,1.77
2019-05-02T22:58:22.305Z,1.80
2019-05-02T23:00:52.209Z,1.95
2019-05-02T23:03:21.516Z,1.98
2019-05-02T23:05:55.522Z,1.87
2019-05-02T23:08:24.389Z,2.35
2019-05-02T23:10:57.681Z,2.20
2019-05-02T23:13:26.477Z,2.00
2019-05-02T23:15:55.169Z,1.90
2019-05-02T23:18:27.738Z,2.00
2019-05-02T23:20:56.517Z,2.00
2019-05-02T23:23:26.536Z,1.90
2019-05-02T23:25:56.780Z,1.95
2019-05-02T23:28:31.656Z,2.40
2019-05-02T23:31:00.268Z,2.50
2019-05-02T23:33:46.975Z,2.15
2019-05-02T23:36:15.696Z,2.45
2019-05-02T23:38:47.888Z,2.52
2019-05-02T23:41:22.093Z,1.98
2019-05-02T23:43:52.440Z,2.33
2019-05-02T23:46:26.088Z,2.15
2019-05-02T23:48:55.814Z,2.25
2019-05-02T23:51:24.489Z,2.10
2019-05-02T23:53:53.162Z,2.83
2019-05-02T23:56:22.156Z,2.30
2019-05-02T23:58:52.003Z,2.52
